sensor_id;sensor_type;location;lat;lon;timestamp;pressure;altitude;pressure_sealevel;temperature;humidity
3294;BME280;1659;51.470;6.770;2023-04-12T00:00:03;100549.81;;;10.66;61.84
3294;BME280;1659;51.470;6.770;2023-04-12T00:02:34;100537.44;;;10.67;61.72
3294;BME280;1659;51.470;6.770;2023-04-12T00:05:02;100540.03;;;10.70;61.93
3294;BME280;1659;51.470;6.770;2023-04-12T00:07:29;100538.25;;;10.70;61.90
3294;BME280;1659;51.470;6.770;2023-04-12T00:09:56;100536.47;;;10.71;62.04
3294;BME280;1659;51.470;6.770;2023-04-12T00:12:23;100533.84;;;10.69;62.27
3294;BME280;1659;51.470;6.770;2023-04-12T00:14:49;100524.28;;;10.65;62.69
3294;BME280;1659;51.470;6.770;2023-04-12T00:17:16;100525.47;;;10.52;63.28
3294;BME280;1659;51.470;6.770;2023-04-12T00:19:43;100530.19;;;10.36;64.31
3294;BME280;1659;51.470;6.770;2023-04-12T00:22:11;100516.44;;;10.18;65.39
3294;BME280;1659;51.470;6.770;2023-04-12T00:24:39;100513.25;;;10.02;66.04
3294;BME280;1659;51.470;6.770;2023-04-12T00:27:07;100517.06;;;9.89;67.48
3294;BME280;1659;51.470;6.770;2023-04-12T00:29:34;100498.84;;;9.77;68.11
3294;BME280;1659;51.470;6.770;2023-04-12T00:32:05;100497.28;;;9.67;68.64
3294;BME280;1659;51.470;6.770;2023-04-12T00:34:32;100481.59;;;9.59;69.38
3294;BME280;1659;51.470;6.770;2023-04-12T00:37:02;100479.06;;;9.54;69.69
3294;BME280;1659;51.470;6.770;2023-04-12T00:39:32;100473.88;;;9.48;70.27
3294;BME280;1659;51.470;6.770;2023-04-12T00:42:02;100459.06;;;9.41;70.89
3294;BME280;1659;51.470;6.770;2023-04-12T00:44:29;100467.94;;;9.37;71.09
3294;BME280;1659;51.470;6.770;2023-04-12T00:46:57;100463.63;;;9.33;71.27
3294;BME280;1659;51.470;6.770;2023-04-12T00:49:24;100461.09;;;9.28;71.83
3294;BME280;1659;51.470;6.770;2023-04-12T00:51:57;100447.03;;;9.26;72.14
3294;BME280;1659;51.470;6.770;2023-04-12T00:54:24;100447.13;;;9.21;72.66
3294;BME280;1659;51.470;6.770;2023-04-12T00:56:52;100436.63;;;9.18;73.17
3294;BME280;1659;51.470;6.770;2023-04-12T00:59:18;100436.69;;;9.15;73.31
3294;BME280;1659;51.470;6.770;2023-04-12T01:01:45;100421.84;;;9.11;74.08
3294;BME280;1659;51.470;6.770;2023-04-12T01:04:11;100412.19;;;9.10;74.47
3294;BME280;1659;51.470;6.770;2023-04-12T01:06:59;100408.72;;;9.08;74.46
3294;BME280;1659;51.470;6.770;2023-04-12T01:09:33;100392.91;;;9.06;74.98
3294;BME280;1659;51.470;6.770;2023-04-12T01:12:08;100389.50;;;9.01;75.55
3294;BME280;1659;51.470;6.770;2023-04-12T01:14:42;100393.03;;;9.00;75.73
3294;BME280;1659;51.470;6.770;2023-04-12T01:17:13;100392.16;;;9.00;75.90
3294;BME280;1659;51.470;6.770;2023-04-12T01:22:44;100389.59;;;8.97;76.20
3294;BME280;1659;51.470;6.770;2023-04-12T01:25:26;100375.59;;;8.95;77.04
3294;BME280;1659;51.470;6.770;2023-04-12T01:28:01;100373.88;;;8.91;76.85
3294;BME280;1659;51.470;6.770;2023-04-12T01:30:29;100370.41;;;8.88;77.65
3294;BME280;1659;51.470;6.770;2023-04-12T01:32:59;100364.31;;;8.86;78.04
3294;BME280;1659;51.470;6.770;2023-04-12T01:35:29;100357.34;;;8.82;78.34
3294;BME280;1659;51.470;6.770;2023-04-12T01:37:57;100348.59;;;8.80;78.74
3294;BME280;1659;51.470;6.770;2023-04-12T01:40:27;100335.50;;;8.77;79.15
3294;BME280;1659;51.470;6.770;2023-04-12T01:43:07;100339.06;;;8.73;79.27
3294;BME280;1659;51.470;6.770;2023-04-12T01:45:37;100334.72;;;8.72;79.68
3294;BME280;1659;51.470;6.770;2023-04-12T01:48:11;100326.88;;;8.67;80.25
3294;BME280;1659;51.470;6.770;2023-04-12T01:50:48;100315.53;;;8.64;80.75
3294;BME280;1659;51.470;6.770;2023-04-12T01:53:20;100309.47;;;8.59;80.95
3294;BME280;1659;51.470;6.770;2023-04-12T01:55:49;100295.53;;;8.54;81.56
3294;BME280;1659;51.470;6.770;2023-04-12T01:58:19;100292.09;;;8.48;82.15
3294;BME280;1659;51.470;6.770;2023-04-12T02:00:48;100287.81;;;8.44;82.57
3294;BME280;1659;51.470;6.770;2023-04-12T02:03:23;100286.06;;;8.40;83.21
3294;BME280;1659;51.470;6.770;2023-04-12T02:05:58;100273.88;;;8.36;84.15
3294;BME280;1659;51.470;6.770;2023-04-12T02:08:25;100266.94;;;8.30;84.31
3294;BME280;1659;51.470;6.770;2023-04-12T02:10:53;100267.84;;;8.29;84.64
3294;BME280;1659;51.470;6.770;2023-04-12T02:13:21;100259.06;;;8.29;85.21
3294;BME280;1659;51.470;6.770;2023-04-12T02:15:48;100249.44;;;8.26;85.48
3294;BME280;1659;51.470;6.770;2023-04-12T02:18:15;100247.72;;;8.25;85.92
3294;BME280;1659;51.470;6.770;2023-04-12T02:20:42;100238.09;;;8.24;86.34
3294;BME280;1659;51.470;6.770;2023-04-12T02:23:09;100239.84;;;8.24;86.17
3294;BME280;1659;51.470;6.770;2023-04-12T02:25:35;100220.59;;;8.22;86.99
3294;BME280;1659;51.470;6.770;2023-04-12T02:28:02;100217.13;;;8.20;87.29
3294;BME280;1659;51.470;6.770;2023-04-12T02:30:33;100215.38;;;8.19;87.79
3294;BME280;1659;51.470;6.770;2023-04-12T02:33:01;100222.44;;;8.17;87.32
3294;BME280;1659;51.470;6.770;2023-04-12T02:35:34;100221.59;;;8.16;87.95
3294;BME280;1659;51.470;6.770;2023-04-12T02:38:11;100205.81;;;8.15;87.94
3294;BME280;1659;51.470;6.770;2023-04-12T02:40:38;100197.94;;;8.13;88.28
3294;BME280;1659;51.470;6.770;2023-04-12T02:43:06;100194.44;;;8.12;88.75
3294;BME280;1659;51.470;6.770;2023-04-12T02:45:34;100183.06;;;8.10;88.52
3294;BME280;1659;51.470;6.770;2023-04-12T02:48:01;100170.84;;;8.08;88.68
3294;BME280;1659;51.470;6.770;2023-04-12T02:50:29;100172.66;;;8.04;89.25
3294;BME280;1659;51.470;6.770;2023-04-12T02:52:56;100162.19;;;8.01;89.46
3294;BME280;1659;51.470;6.770;2023-04-12T02:55:22;100153.47;;;7.99;89.78
3294;BME280;1659;51.470;6.770;2023-04-12T02:57:49;100146.44;;;7.98;90.01
3294;BME280;1659;51.470;6.770;2023-04-12T03:00:16;100140.34;;;7.96;89.78
3294;BME280;1659;51.470;6.770;2023-04-12T03:02:45;100126.38;;;7.94;90.79
3294;BME280;1659;51.470;6.770;2023-04-12T03:05:12;100115.88;;;7.92;90.31
3294;BME280;1659;51.470;6.770;2023-04-12T03:07:38;100110.59;;;7.92;90.81
3294;BME280;1659;51.470;6.770;2023-04-12T03:10:06;100103.56;;;7.93;90.61
3294;BME280;1659;51.470;6.770;2023-04-12T03:12:33;100096.59;;;7.92;90.52
3294;BME280;1659;51.470;6.770;2023-04-12T03:15:00;100076.44;;;7.91;90.76
3294;BME280;1659;51.470;6.770;2023-04-12T03:17:26;100092.25;;;7.88;90.62
3294;BME280;1659;51.470;6.770;2023-04-12T03:19:54;100078.22;;;7.89;90.94
3294;BME280;1659;51.470;6.770;2023-04-12T03:22:22;100067.72;;;7.87;91.00
3294;BME280;1659;51.470;6.770;2023-04-12T03:24:49;100058.97;;;7.87;91.00
3294;BME280;1659;51.470;6.770;2023-04-12T03:27:16;100069.47;;;7.88;91.47
3294;BME280;1659;51.470;6.770;2023-04-12T03:29:42;100052.75;;;7.91;91.44
3294;BME280;1659;51.470;6.770;2023-04-12T03:32:09;100048.31;;;7.93;91.34
3294;BME280;1659;51.470;6.770;2023-04-12T03:34:35;100030.78;;;7.93;91.50
3294;BME280;1659;51.470;6.770;2023-04-12T03:37:03;100037.72;;;7.98;90.91
3294;BME280;1659;51.470;6.770;2023-04-12T03:39:30;100026.31;;;7.99;91.09
3294;BME280;1659;51.470;6.770;2023-04-12T03:41:56;100019.28;;;7.99;91.37
3294;BME280;1659;51.470;6.770;2023-04-12T03:44:23;100027.97;;;8.03;90.75
3294;BME280;1659;51.470;6.770;2023-04-12T03:46:50;100010.41;;;8.03;90.89
3294;BME280;1659;51.470;6.770;2023-04-12T03:49:17;100004.22;;;8.07;90.50
3294;BME280;1659;51.470;6.770;2023-04-12T03:51:43;100007.66;;;8.09;91.02
3294;BME280;1659;51.470;6.770;2023-04-12T03:54:11;99987.47;;;8.10;91.13
3294;BME280;1659;51.470;6.770;2023-04-12T03:56:38;99970.78;;;8.12;91.13
3294;BME280;1659;51.470;6.770;2023-04-12T03:59:06;99979.50;;;8.15;90.71
3294;BME280;1659;51.470;6.770;2023-04-12T04:01:33;99975.94;;;8.16;90.54
3294;BME280;1659;51.470;6.770;2023-04-12T04:04:04;99963.63;;;8.18;89.84
3294;BME280;1659;51.470;6.770;2023-04-12T04:06:31;99954.81;;;8.20;89.80
3294;BME280;1659;51.470;6.770;2023-04-12T04:08:58;99949.53;;;8.20;89.63
3294;BME280;1659;51.470;6.770;2023-04-12T04:11:41;99946.88;;;8.22;89.68
3294;BME280;1659;51.470;6.770;2023-04-12T04:14:07;99961.75;;;8.23;89.89
3294;BME280;1659;51.470;6.770;2023-04-12T04:16:34;99944.22;;;8.23;88.96
3294;BME280;1659;51.470;6.770;2023-04-12T04:19:11;99937.22;;;8.22;89.16
3294;BME280;1659;51.470;6.770;2023-04-12T04:21:37;99935.44;;;8.23;88.83
3294;BME280;1659;51.470;6.770;2023-04-12T04:24:05;99925.81;;;8.22;88.98
3294;BME280;1659;51.470;6.770;2023-04-12T04:26:34;99934.59;;;8.21;89.35
3294;BME280;1659;51.470;6.770;2023-04-12T04:29:03;99924.09;;;8.21;89.08
3294;BME280;1659;51.470;6.770;2023-04-12T04:31:31;99926.78;;;8.18;88.58
3294;BME280;1659;51.470;6.770;2023-04-12T04:34:01;99915.41;;;8.16;89.01
3294;BME280;1659;51.470;6.770;2023-04-12T04:36:49;99910.25;;;8.12;89.11
3294;BME280;1659;51.470;6.770;2023-04-12T04:39:42;99911.19;;;8.08;89.46
3294;BME280;1659;51.470;6.770;2023-04-12T04:42:16;99894.53;;;8.09;89.35
3294;BME280;1659;51.470;6.770;2023-04-12T04:44:46;99895.34;;;8.11;89.31
3294;BME280;1659;51.470;6.770;2023-04-12T04:47:15;99897.91;;;8.15;89.58
3294;BME280;1659;51.470;6.770;2023-04-12T04:49:45;99888.25;;;8.15;89.12
3294;BME280;1659;51.470;6.770;2023-04-12T04:52:42;99899.59;;;8.17;89.56
3294;BME280;1659;51.470;6.770;2023-04-12T04:55:30;99892.63;;;8.16;89.48
3294;BME280;1659;51.470;6.770;2023-04-12T05:08:25;99876.56;;;7.88;90.91
3294;BME280;1659;51.470;6.770;2023-04-12T05:10:54;99866.19;;;7.82;91.45
3294;BME280;1659;51.470;6.770;2023-04-12T05:13:22;99862.78;;;7.78;92.19
3294;BME280;1659;51.470;6.770;2023-04-12T05:15:55;99865.47;;;7.75;92.34
3294;BME280;1659;51.470;6.770;2023-04-12T05:18:23;99862.00;;;7.73;92.97
3294;BME280;1659;51.470;6.770;2023-04-12T05:20:50;99859.41;;;7.71;93.17
3294;BME280;1659;51.470;6.770;2023-04-12T05:23:17;99860.28;;;7.70;93.21
3294;BME280;1659;51.470;6.770;2023-04-12T05:25:46;99853.31;;;7.69;93.57
3294;BME280;1659;51.470;6.770;2023-04-12T05:28:14;99840.19;;;7.68;93.85
3294;BME280;1659;51.470;6.770;2023-04-12T05:30:41;99842.00;;;7.66;94.54
3294;BME280;1659;51.470;6.770;2023-04-12T05:33:25;99843.81;;;7.64;94.86
3294;BME280;1659;51.470;6.770;2023-04-12T05:39:12;99815.81;;;7.61;94.93
3294;BME280;1659;51.470;6.770;2023-04-12T05:45:06;99836.97;;;7.55;96.52
3294;BME280;1659;51.470;6.770;2023-04-12T05:47:35;99805.47;;;7.53;96.59
3294;BME280;1659;51.470;6.770;2023-04-12T05:50:01;99805.44;;;7.55;97.32
3294;BME280;1659;51.470;6.770;2023-04-12T05:52:28;99802.81;;;7.55;97.15
3294;BME280;1659;51.470;6.770;2023-04-12T05:54:54;99808.00;;;7.56;97.26
3294;BME280;1659;51.470;6.770;2023-04-12T05:57:21;99795.75;;;7.57;97.81
3294;BME280;1659;51.470;6.770;2023-04-12T05:59:48;99791.31;;;7.59;97.91
3294;BME280;1659;51.470;6.770;2023-04-12T06:02:15;99809.63;;;7.64;98.34
3294;BME280;1659;51.470;6.770;2023-04-12T06:04:42;99799.91;;;7.67;98.33
3294;BME280;1659;51.470;6.770;2023-04-12T06:07:09;99794.63;;;7.69;98.09
3294;BME280;1659;51.470;6.770;2023-04-12T06:09:36;99787.56;;;7.71;98.55
3294;BME280;1659;51.470;6.770;2023-04-12T06:12:02;99792.78;;;7.72;98.92
3294;BME280;1659;51.470;6.770;2023-04-12T06:14:29;99783.09;;;7.74;98.37
3294;BME280;1659;51.470;6.770;2023-04-12T06:16:55;99781.28;;;7.77;98.22
3294;BME280;1659;51.470;6.770;2023-04-12T06:19:23;99782.09;;;7.79;99.21
3294;BME280;1659;51.470;6.770;2023-04-12T06:21:51;99773.22;;;7.83;99.30
3294;BME280;1659;51.470;6.770;2023-04-12T06:24:18;99757.41;;;7.84;99.31
3294;BME280;1659;51.470;6.770;2023-04-12T06:26:44;99755.66;;;7.86;99.26
3294;BME280;1659;51.470;6.770;2023-04-12T06:29:12;99751.16;;;7.90;99.08
3294;BME280;1659;51.470;6.770;2023-04-12T06:31:38;99744.97;;;7.92;98.97
3294;BME280;1659;51.470;6.770;2023-04-12T06:34:05;99744.03;;;7.95;99.35
3294;BME280;1659;51.470;6.770;2023-04-12T06:36:33;99741.31;;;7.98;99.59
3294;BME280;1659;51.470;6.770;2023-04-12T06:38:59;99725.44;;;8.01;99.75
3294;BME280;1659;51.470;6.770;2023-04-12T06:41:26;99730.69;;;8.03;99.30
3294;BME280;1659;51.470;6.770;2023-04-12T06:43:52;99728.94;;;8.02;99.25
3294;BME280;1659;51.470;6.770;2023-04-12T06:46:24;99727.16;;;8.04;99.07
3294;BME280;1659;51.470;6.770;2023-04-12T06:48:51;99727.16;;;8.04;99.99
3294;BME280;1659;51.470;6.770;2023-04-12T06:51:17;99720.13;;;8.04;99.53
3294;BME280;1659;51.470;6.770;2023-04-12T06:53:45;99710.41;;;8.06;99.99
3294;BME280;1659;51.470;6.770;2023-04-12T06:56:14;99714.84;;;8.04;99.99
3294;BME280;1659;51.470;6.770;2023-04-12T06:58:48;99706.97;;;8.04;100.00
3294;BME280;1659;51.470;6.770;2023-04-12T07:02:04;99688.50;;;8.06;99.89
3294;BME280;1659;51.470;6.770;2023-04-12T07:05:06;99694.56;;;8.09;100.00
3294;BME280;1659;51.470;6.770;2023-04-12T07:07:33;99693.63;;;8.10;100.00
3294;BME280;1659;51.470;6.770;2023-04-12T07:13:27;99690.94;;;8.13;100.00
3294;BME280;1659;51.470;6.770;2023-04-12T07:15:54;99679.50;;;8.15;100.00
3294;BME280;1659;51.470;6.770;2023-04-12T07:18:20;99686.53;;;8.14;100.00
3294;BME280;1659;51.470;6.770;2023-04-12T07:20:47;99675.06;;;8.17;100.00
3294;BME280;1659;51.470;6.770;2023-04-12T07:23:14;99676.66;;;8.22;100.00
3294;BME280;1659;51.470;6.770;2023-04-12T07:25:41;99677.41;;;8.27;100.00
3294;BME280;1659;51.470;6.770;2023-04-12T07:28:07;99668.53;;;8.31;100.00
3294;BME280;1659;51.470;6.770;2023-04-12T07:30:37;99671.03;;;8.36;100.00
3294;BME280;1659;51.470;6.770;2023-04-12T07:33:04;99662.13;;;8.40;100.00
3294;BME280;1659;51.470;6.770;2023-04-12T07:35:31;99661.25;;;8.41;100.00
3294;BME280;1659;51.470;6.770;2023-04-12T07:37:58;99660.38;;;8.42;100.00
3294;BME280;1659;51.470;6.770;2023-04-12T07:40:25;99657.66;;;8.45;100.00
3294;BME280;1659;51.470;6.770;2023-04-12T07:42:52;99649.66;;;8.48;100.00
3294;BME280;1659;51.470;6.770;2023-04-12T07:45:19;99646.97;;;8.52;100.00
3294;BME280;1659;51.470;6.770;2023-04-12T07:47:47;99639.91;;;8.52;100.00
3294;BME280;1659;51.470;6.770;2023-04-12T07:50:13;99638.22;;;8.51;100.00
3294;BME280;1659;51.470;6.770;2023-04-12T07:52:40;99630.34;;;8.49;100.00
3294;BME280;1659;51.470;6.770;2023-04-12T07:55:07;99632.97;;;8.49;100.00
3294;BME280;1659;51.470;6.770;2023-04-12T07:57:34;99649.75;;;8.45;100.00
3294;BME280;1659;51.470;6.770;2023-04-12T08:00:00;99634.06;;;8.41;100.00
3294;BME280;1659;51.470;6.770;2023-04-12T08:02:30;99641.09;;;8.40;100.00
3294;BME280;1659;51.470;6.770;2023-04-12T08:04:58;99655.97;;;8.43;100.00
3294;BME280;1659;51.470;6.770;2023-04-12T08:07:25;99647.13;;;8.45;100.00
3294;BME280;1659;51.470;6.770;2023-04-12T08:09:53;99649.66;;;8.48;100.00
3294;BME280;1659;51.470;6.770;2023-04-12T08:12:20;99642.59;;;8.50;100.00
3294;BME280;1659;51.470;6.770;2023-04-12T08:14:47;99639.88;;;8.54;100.00
3294;BME280;1659;51.470;6.770;2023-04-12T08:17:13;99648.50;;;8.59;100.00
3294;BME280;1659;51.470;6.770;2023-04-12T08:19:41;99637.94;;;8.60;100.00
3294;BME280;1659;51.470;6.770;2023-04-12T08:22:08;99626.44;;;8.63;100.00
3294;BME280;1659;51.470;6.770;2023-04-12T08:24:52;99624.56;;;8.66;100.00
3294;BME280;1659;51.470;6.770;2023-04-12T08:27:18;99627.94;;;8.72;100.00
3294;BME280;1659;51.470;6.770;2023-04-12T08:29:45;99617.22;;;8.78;100.00
3294;BME280;1659;51.470;6.770;2023-04-12T08:32:16;99613.50;;;8.85;100.00
3294;BME280;1659;51.470;6.770;2023-04-12T08:34:43;99613.16;;;8.96;100.00
3294;BME280;1659;51.470;6.770;2023-04-12T08:37:11;99619.97;;;9.03;100.00
3294;BME280;1659;51.470;6.770;2023-04-12T08:39:37;99613.75;;;9.05;100.00
3294;BME280;1659;51.470;6.770;2023-04-12T08:42:04;99615.44;;;9.08;100.00
3294;BME280;1659;51.470;6.770;2023-04-12T08:44:33;99612.88;;;9.05;100.00
3294;BME280;1659;51.470;6.770;2023-04-12T08:47:02;99621.75;;;9.02;100.00
3294;BME280;1659;51.470;6.770;2023-04-12T08:49:30;99614.78;;;9.00;100.00
3294;BME280;1659;51.470;6.770;2023-04-12T08:51:59;99615.69;;;9.00;100.00
3294;BME280;1659;51.470;6.770;2023-04-12T08:54:27;99613.94;;;8.99;100.00
3294;BME280;1659;51.470;6.770;2023-04-12T08:56:55;99623.53;;;9.02;100.00
3294;BME280;1659;51.470;6.770;2023-04-12T08:59:24;99617.34;;;9.03;100.00
3294;BME280;1659;51.470;6.770;2023-04-12T09:01:53;99610.31;;;9.03;100.00
3294;BME280;1659;51.470;6.770;2023-04-12T09:04:20;99617.38;;;9.01;100.00
3294;BME280;1659;51.470;6.770;2023-04-12T09:06:46;99617.38;;;9.01;100.00
3294;BME280;1659;51.470;6.770;2023-04-12T09:09:13;99621.84;;;8.99;100.00
3294;BME280;1659;51.470;6.770;2023-04-12T09:11:41;99621.78;;;9.01;100.00
3294;BME280;1659;51.470;6.770;2023-04-12T09:14:20;99622.78;;;8.98;100.00
3294;BME280;1659;51.470;6.770;2023-04-12T09:16:47;99628.97;;;8.96;100.00
3294;BME280;1659;51.470;6.770;2023-04-12T09:19:14;99624.53;;;8.98;100.00
3294;BME280;1659;51.470;6.770;2023-04-12T09:21:57;99625.41;;;8.98;100.00
3294;BME280;1659;51.470;6.770;2023-04-12T09:24:26;99613.91;;;9.01;100.00
3294;BME280;1659;51.470;6.770;2023-04-12T09:27:26;99612.84;;;9.06;100.00
3294;BME280;1659;51.470;6.770;2023-04-12T09:30:07;99608.31;;;9.10;100.00
3294;BME280;1659;51.470;6.770;2023-04-12T09:32:33;99605.44;;;9.19;100.00
3294;BME280;1659;51.470;6.770;2023-04-12T09:35:00;99595.28;;;9.34;100.00
3294;BME280;1659;51.470;6.770;2023-04-12T09:37:29;99599.19;;;9.49;100.00
3294;BME280;1659;51.470;6.770;2023-04-12T09:39:58;99604.94;;;9.61;100.00
3294;BME280;1659;51.470;6.770;2023-04-12T09:42:27;99606.59;;;9.64;100.00
3294;BME280;1659;51.470;6.770;2023-04-12T09:44:55;99610.13;;;9.64;100.00
3294;BME280;1659;51.470;6.770;2023-04-12T09:47:25;99601.28;;;9.66;100.00
3294;BME280;1659;51.470;6.770;2023-04-12T09:50:23;99606.53;;;9.66;100.00
3294;BME280;1659;51.470;6.770;2023-04-12T09:52:53;99596.81;;;9.68;100.00
3294;BME280;1659;51.470;6.770;2023-04-12T09:55:20;99607.16;;;9.74;100.00
3294;BME280;1659;51.470;6.770;2023-04-12T09:57:49;99603.50;;;9.78;100.00
3294;BME280;1659;51.470;6.770;2023-04-12T10:00:17;99591.59;;;9.91;100.00
3294;BME280;1659;51.470;6.770;2023-04-12T10:02:46;99597.06;;;10.12;100.00
3294;BME280;1659;51.470;6.770;2023-04-12T10:05:14;99599.19;;;10.26;100.00
3294;BME280;1659;51.470;6.770;2023-04-12T10:07:42;99588.44;;;10.30;100.00
3294;BME280;1659;51.470;6.770;2023-04-12T10:10:10;99592.63;;;10.37;100.00
3294;BME280;1659;51.470;6.770;2023-04-12T10:12:38;99586.88;;;10.50;100.00
3294;BME280;1659;51.470;6.770;2023-04-12T10:15:08;99582.97;;;10.60;100.00
3294;BME280;1659;51.470;6.770;2023-04-12T10:17:40;99574.63;;;10.71;100.00
3294;BME280;1659;51.470;6.770;2023-04-12T10:20:08;99582.81;;;10.87;100.00
3294;BME280;1659;51.470;6.770;2023-04-12T10:22:38;99581.25;;;11.05;100.00
3294;BME280;1659;51.470;6.770;2023-04-12T10:25:04;99588.88;;;11.34;100.00
3294;BME280;1659;51.470;6.770;2023-04-12T10:27:35;99574.13;;;11.71;100.00
3294;BME280;1659;51.470;6.770;2023-04-12T10:30:22;99577.19;;;12.03;100.00
3294;BME280;1659;51.470;6.770;2023-04-12T10:35:50;99579.56;;;12.09;100.00
3294;BME280;1659;51.470;6.770;2023-04-12T10:38:17;99596.75;;;11.79;98.70
3294;BME280;1659;51.470;6.770;2023-04-12T10:41:11;99597.56;;;11.38;99.01
3294;BME280;1659;51.470;6.770;2023-04-12T10:43:39;99606.59;;;11.10;99.84
3294;BME280;1659;51.470;6.770;2023-04-12T10:46:07;99615.38;;;10.89;100.00
3294;BME280;1659;51.470;6.770;2023-04-12T10:48:35;99620.59;;;10.67;100.00
3294;BME280;1659;51.470;6.770;2023-04-12T10:51:15;99611.41;;;10.53;100.00
3294;BME280;1659;51.470;6.770;2023-04-12T10:53:47;99615.97;;;10.48;100.00
3294;BME280;1659;51.470;6.770;2023-04-12T10:56:37;99612.59;;;10.45;100.00
3294;BME280;1659;51.470;6.770;2023-04-12T10:59:05;99609.84;;;10.48;100.00
3294;BME280;1659;51.470;6.770;2023-04-12T11:01:33;99616.88;;;10.49;100.00
3294;BME280;1659;51.470;6.770;2023-04-12T11:04:11;99617.78;;;10.48;100.00
3294;BME280;1659;51.470;6.770;2023-04-12T11:06:57;99616.97;;;10.46;100.00
3294;BME280;1659;51.470;6.770;2023-04-12T11:09:27;99609.94;;;10.45;100.00
3294;BME280;1659;51.470;6.770;2023-04-12T11:12:10;99611.53;;;10.50;100.00
3294;BME280;1659;51.470;6.770;2023-04-12T11:14:42;99606.84;;;10.57;100.00
3294;BME280;1659;51.470;6.770;2023-04-12T11:17:24;99602.84;;;10.70;99.85
3294;BME280;1659;51.470;6.770;2023-04-12T11:19:53;99605.88;;;10.83;99.77
3294;BME280;1659;51.470;6.770;2023-04-12T11:22:22;99612.34;;;10.98;99.08
3294;BME280;1659;51.470;6.770;2023-04-12T11:24:50;99617.00;;;11.15;98.93
3294;BME280;1659;51.470;6.770;2023-04-12T11:27:18;99609.31;;;11.31;98.44
3294;BME280;1659;51.470;6.770;2023-04-12T11:29:47;99614.16;;;11.42;97.30
3294;BME280;1659;51.470;6.770;2023-04-12T11:32:15;99612.06;;;11.50;96.75
3294;BME280;1659;51.470;6.770;2023-04-12T11:34:44;99621.13;;;11.65;96.83
3294;BME280;1659;51.470;6.770;2023-04-12T11:37:11;99620.84;;;11.73;96.02
3294;BME280;1659;51.470;6.770;2023-04-12T11:39:39;99624.72;;;11.84;95.94
3294;BME280;1659;51.470;6.770;2023-04-12T11:42:06;99615.13;;;12.04;95.74
3294;BME280;1659;51.470;6.770;2023-04-12T11:44:39;99622.19;;;12.24;95.03
3294;BME280;1659;51.470;6.770;2023-04-12T11:47:12;99617.25;;;12.35;93.90
3294;BME280;1659;51.470;6.770;2023-04-12T11:49:43;99616.00;;;12.44;93.88
3294;BME280;1659;51.470;6.770;2023-04-12T11:52:10;99616.59;;;12.51;93.72
3294;BME280;1659;51.470;6.770;2023-04-12T11:54:41;99613.59;;;12.58;93.33
3294;BME280;1659;51.470;6.770;2023-04-12T11:57:10;99614.34;;;12.81;93.25
3294;BME280;1659;51.470;6.770;2023-04-12T11:59:37;99599.00;;;13.24;92.19
3294;BME280;1659;51.470;6.770;2023-04-12T12:02:04;99600.84;;;13.60;91.23
3294;BME280;1659;51.470;6.770;2023-04-12T12:04:31;99599.38;;;14.07;90.66
3294;BME280;1659;51.470;6.770;2023-04-12T12:06:59;99590.81;;;14.68;89.24
3294;BME280;1659;51.470;6.770;2023-04-12T12:09:26;99602.06;;;15.21;87.18
3294;BME280;1659;51.470;6.770;2023-04-12T12:11:53;99592.66;;;15.46;86.16
3294;BME280;1659;51.470;6.770;2023-04-12T12:14:22;99586.69;;;15.57;85.80
3294;BME280;1659;51.470;6.770;2023-04-12T12:16:52;99577.03;;;15.86;85.03
3294;BME280;1659;51.470;6.770;2023-04-12T12:19:32;99572.63;;;16.15;84.43
3294;BME280;1659;51.470;6.770;2023-04-12T12:22:14;99578.81;;;16.30;83.46
3294;BME280;1659;51.470;6.770;2023-04-12T12:24:45;99575.56;;;16.54;83.23
3294;BME280;1659;51.470;6.770;2023-04-12T12:27:12;99569.53;;;16.79;80.65
3294;BME280;1659;51.470;6.770;2023-04-12T12:29:40;99571.19;;;17.23;79.57
3294;BME280;1659;51.470;6.770;2023-04-12T12:32:10;99577.38;;;17.51;77.97
3294;BME280;1659;51.470;6.770;2023-04-12T12:34:38;99585.44;;;17.64;77.32
3294;BME280;1659;51.470;6.770;2023-04-12T12:37:11;99589.84;;;17.50;75.70
3294;BME280;1659;51.470;6.770;2023-04-12T12:39:58;99596.56;;;17.43;74.93
3294;BME280;1659;51.470;6.770;2023-04-12T12:42:25;99589.28;;;17.60;74.87
3294;BME280;1659;51.470;6.770;2023-04-12T12:44:52;99597.75;;;17.79;73.11
3294;BME280;1659;51.470;6.770;2023-04-12T12:47:18;99593.78;;;17.72;72.13
3294;BME280;1659;51.470;6.770;2023-04-12T12:49:45;99583.59;;;17.64;71.60
3294;BME280;1659;51.470;6.770;2023-04-12T12:52:11;99581.28;;;17.85;71.52
3294;BME280;1659;51.470;6.770;2023-04-12T12:54:39;99585.19;;;17.94;70.36
3294;BME280;1659;51.470;6.770;2023-04-12T12:57:06;99576.13;;;18.09;69.87
3294;BME280;1659;51.470;6.770;2023-04-12T12:59:32;99563.38;;;18.26;67.10
3294;BME280;1659;51.470;6.770;2023-04-12T13:01:59;99562.88;;;18.34;64.87
3294;BME280;1659;51.470;6.770;2023-04-12T13:04:25;99560.50;;;17.90;63.87
3294;BME280;1659;51.470;6.770;2023-04-12T13:06:52;99560.75;;;17.73;64.58
3294;BME280;1659;51.470;6.770;2023-04-12T13:09:18;99553.22;;;17.92;63.35
3294;BME280;1659;51.470;6.770;2023-04-12T13:11:46;99558.28;;;18.23;63.47
3294;BME280;1659;51.470;6.770;2023-04-12T13:14:13;99556.66;;;18.46;60.41
3294;BME280;1659;51.470;6.770;2023-04-12T13:16:39;99556.66;;;18.20;59.58
3294;BME280;1659;51.470;6.770;2023-04-12T13:19:06;99556.66;;;18.20;60.40
3294;BME280;1659;51.470;6.770;2023-04-12T13:21:32;99561.69;;;18.51;60.52
3294;BME280;1659;51.470;6.770;2023-04-12T13:23:59;99562.25;;;18.80;57.84
3294;BME280;1659;51.470;6.770;2023-04-12T13:26:25;99554.34;;;18.91;57.27
3294;BME280;1659;51.470;6.770;2023-04-12T13:28:53;99560.44;;;18.93;57.57
3294;BME280;1659;51.470;6.770;2023-04-12T13:31:20;99558.78;;;18.41;58.25
3294;BME280;1659;51.470;6.770;2023-04-12T13:33:46;99569.00;;;17.83;59.53
3294;BME280;1659;51.470;6.770;2023-04-12T13:36:13;99597.81;;;17.10;60.11
3294;BME280;1659;51.470;6.770;2023-04-12T13:38:39;99614.41;;;16.15;60.68
3294;BME280;1659;51.470;6.770;2023-04-12T13:41:06;99616.72;;;15.13;62.22
3294;BME280;1659;51.470;6.770;2023-04-12T13:43:32;99628.00;;;14.35;64.13
3294;BME280;1659;51.470;6.770;2023-04-12T13:46:00;99633.72;;;13.75;65.24
3294;BME280;1659;51.470;6.770;2023-04-12T13:48:27;99640.25;;;13.31;66.35
3294;BME280;1659;51.470;6.770;2023-04-12T13:50:53;99635.44;;;12.82;67.62
3294;BME280;1659;51.470;6.770;2023-04-12T13:53:20;99646.22;;;12.40;68.81
3294;BME280;1659;51.470;6.770;2023-04-12T13:55:47;99656.72;;;12.00;69.88
3294;BME280;1659;51.470;6.770;2023-04-12T13:58:14;99667.78;;;11.67;70.86
3294;BME280;1659;51.470;6.770;2023-04-12T14:00:41;99660.97;;;11.40;71.78